sensor_id;sensor_type;location;lat;lon;timestamp;P1;durP1;ratioP1;P2;durP2;ratioP2
6832;SDS011;3454;42.654;23.378;2023-07-13T00:02:14;3.97;;;3.15;;
6832;SDS011;3454;42.654;23.378;2023-07-13T00:04:41;7.70;;;3.47;;
6832;SDS011;3454;42.654;23.378;2023-07-13T00:07:07;4.75;;;3.58;;
6832;SDS011;3454;42.654;23.378;2023-07-13T00:09:33;4.95;;;3.28;;
6832;SDS011;3454;42.654;23.378;2023-07-13T00:11:59;8.02;;;3.60;;
6832;SDS011;3454;42.654;23.378;2023-07-13T00:14:25;5.47;;;3.33;;
6832;SDS011;3454;42.654;23.378;2023-07-13T00:16:52;6.53;;;3.97;;
6832;SDS011;3454;42.654;23.378;2023-07-13T00:19:18;4.25;;;3.55;;
6832;SDS011;3454;42.654;23.378;2023-07-13T00:21:50;6.28;;;3.78;;
6832;SDS011;3454;42.654;23.378;2023-07-13T00:24:17;7.85;;;3.67;;
6832;SDS011;3454;42.654;23.378;2023-07-13T00:26:48;6.88;;;3.90;;
6832;SDS011;3454;42.654;23.378;2023-07-13T00:29:14;4.97;;;3.60;;
6832;SDS011;3454;42.654;23.378;2023-07-13T00:31:41;4.75;;;3.65;;
6832;SDS011;3454;42.654;23.378;2023-07-13T00:34:07;6.85;;;4.03;;
6832;SDS011;3454;42.654;23.378;2023-07-13T00:36:33;7.63;;;3.70;;
6832;SDS011;3454;42.654;23.378;2023-07-13T00:38:59;5.07;;;3.88;;
6832;SDS011;3454;42.654;23.378;2023-07-13T00:41:25;4.45;;;3.90;;
6832;SDS011;3454;42.654;23.378;2023-07-13T00:43:51;5.72;;;3.90;;
6832;SDS011;3454;42.654;23.378;2023-07-13T00:46:18;5.22;;;4.28;;
6832;SDS011;3454;42.654;23.378;2023-07-13T00:48:56;6.13;;;3.85;;
6832;SDS011;3454;42.654;23.378;2023-07-13T00:54:44;6.30;;;3.92;;
6832;SDS011;3454;42.654;23.378;2023-07-13T00:57:11;4.60;;;3.92;;
6832;SDS011;3454;42.654;23.378;2023-07-13T00:59:41;4.50;;;3.67;;
6832;SDS011;3454;42.654;23.378;2023-07-13T01:02:12;4.80;;;3.65;;
6832;SDS011;3454;42.654;23.378;2023-07-13T01:04:38;8.15;;;4.20;;
6832;SDS011;3454;42.654;23.378;2023-07-13T01:07:04;5.45;;;3.42;;
6832;SDS011;3454;42.654;23.378;2023-07-13T01:09:31;4.88;;;3.88;;
6832;SDS011;3454;42.654;23.378;2023-07-13T01:11:56;5.38;;;4.28;;
6832;SDS011;3454;42.654;23.378;2023-07-13T01:14:22;4.30;;;3.72;;
6832;SDS011;3454;42.654;23.378;2023-07-13T01:16:47;6.43;;;4.00;;
6832;SDS011;3454;42.654;23.378;2023-07-13T01:22:17;5.68;;;4.15;;
6832;SDS011;3454;42.654;23.378;2023-07-13T01:24:45;6.68;;;3.72;;
6832;SDS011;3454;42.654;23.378;2023-07-13T01:27:14;5.50;;;3.72;;
6832;SDS011;3454;42.654;23.378;2023-07-13T01:29:42;4.03;;;3.70;;
6832;SDS011;3454;42.654;23.378;2023-07-13T01:32:16;8.20;;;4.25;;
6832;SDS011;3454;42.654;23.378;2023-07-13T01:34:49;6.25;;;4.03;;
6832;SDS011;3454;42.654;23.378;2023-07-13T01:37:19;4.55;;;4.03;;
6832;SDS011;3454;42.654;23.378;2023-07-13T01:39:46;5.53;;;4.25;;
6832;SDS011;3454;42.654;23.378;2023-07-13T01:42:12;4.50;;;3.85;;
6832;SDS011;3454;42.654;23.378;2023-07-13T01:44:38;5.82;;;4.10;;
6832;SDS011;3454;42.654;23.378;2023-07-13T01:47:04;6.93;;;3.42;;
6832;SDS011;3454;42.654;23.378;2023-07-13T01:49:30;5.93;;;3.58;;
6832;SDS011;3454;42.654;23.378;2023-07-13T01:51:56;6.10;;;4.07;;
6832;SDS011;3454;42.654;23.378;2023-07-13T01:54:22;6.40;;;4.10;;
6832;SDS011;3454;42.654;23.378;2023-07-13T01:56:47;5.13;;;4.35;;
6832;SDS011;3454;42.654;23.378;2023-07-13T01:59:13;5.72;;;4.22;;
6832;SDS011;3454;42.654;23.378;2023-07-13T02:01:39;5.47;;;4.40;;
6832;SDS011;3454;42.654;23.378;2023-07-13T02:04:04;7.05;;;4.45;;
6832;SDS011;3454;42.654;23.378;2023-07-13T02:06:30;5.90;;;4.40;;
6832;SDS011;3454;42.654;23.378;2023-07-13T02:08:56;7.70;;;4.10;;
6832;SDS011;3454;42.654;23.378;2023-07-13T02:11:21;4.38;;;3.95;;
6832;SDS011;3454;42.654;23.378;2023-07-13T02:13:47;4.80;;;4.25;;
6832;SDS011;3454;42.654;23.378;2023-07-13T02:16:12;6.65;;;4.30;;
6832;SDS011;3454;42.654;23.378;2023-07-13T02:18:38;5.40;;;4.25;;
6832;SDS011;3454;42.654;23.378;2023-07-13T02:21:04;6.82;;;4.18;;
6832;SDS011;3454;42.654;23.378;2023-07-13T02:23:29;6.07;;;4.97;;
6832;SDS011;3454;42.654;23.378;2023-07-13T02:25:55;4.78;;;4.10;;
6832;SDS011;3454;42.654;23.378;2023-07-13T02:28:22;5.70;;;4.90;;
6832;SDS011;3454;42.654;23.378;2023-07-13T02:30:47;8.05;;;4.82;;
6832;SDS011;3454;42.654;23.378;2023-07-13T02:33:12;4.75;;;4.05;;
6832;SDS011;3454;42.654;23.378;2023-07-13T02:35:38;7.00;;;4.43;;
6832;SDS011;3454;42.654;23.378;2023-07-13T02:38:04;7.15;;;5.20;;
6832;SDS011;3454;42.654;23.378;2023-07-13T02:40:30;6.20;;;4.70;;
6832;SDS011;3454;42.654;23.378;2023-07-13T02:42:58;7.43;;;4.75;;
6832;SDS011;3454;42.654;23.378;2023-07-13T02:45:23;5.90;;;4.50;;
6832;SDS011;3454;42.654;23.378;2023-07-13T02:47:49;6.57;;;4.35;;
6832;SDS011;3454;42.654;23.378;2023-07-13T02:50:14;5.28;;;4.60;;
6832;SDS011;3454;42.654;23.378;2023-07-13T02:52:40;6.00;;;4.88;;
6832;SDS011;3454;42.654;23.378;2023-07-13T02:55:05;7.60;;;4.72;;
6832;SDS011;3454;42.654;23.378;2023-07-13T02:57:31;5.88;;;4.80;;
6832;SDS011;3454;42.654;23.378;2023-07-13T02:59:58;8.43;;;5.20;;
6832;SDS011;3454;42.654;23.378;2023-07-13T03:02:24;5.38;;;4.78;;
6832;SDS011;3454;42.654;23.378;2023-07-13T03:04:50;6.28;;;4.95;;
6832;SDS011;3454;42.654;23.378;2023-07-13T03:07:16;5.00;;;4.47;;
6832;SDS011;3454;42.654;23.378;2023-07-13T03:09:41;7.22;;;4.68;;
6832;SDS011;3454;42.654;23.378;2023-07-13T03:12:07;7.88;;;4.43;;
6832;SDS011;3454;42.654;23.378;2023-07-13T03:14:32;6.22;;;4.32;;
6832;SDS011;3454;42.654;23.378;2023-07-13T03:16:58;10.50;;;4.95;;
6832;SDS011;3454;42.654;23.378;2023-07-13T03:19:23;5.22;;;4.70;;
6832;SDS011;3454;42.654;23.378;2023-07-13T03:21:49;5.60;;;4.80;;
6832;SDS011;3454;42.654;23.378;2023-07-13T03:24:15;6.70;;;4.90;;
6832;SDS011;3454;42.654;23.378;2023-07-13T03:26:41;7.75;;;5.03;;
6832;SDS011;3454;42.654;23.378;2023-07-13T03:29:07;6.20;;;4.70;;
6832;SDS011;3454;42.654;23.378;2023-07-13T03:31:33;6.18;;;4.68;;
6832;SDS011;3454;42.654;23.378;2023-07-13T03:34:00;8.88;;;5.20;;
6832;SDS011;3454;42.654;23.378;2023-07-13T03:36:26;9.63;;;5.75;;
6832;SDS011;3454;42.654;23.378;2023-07-13T03:38:54;6.03;;;5.22;;
6832;SDS011;3454;42.654;23.378;2023-07-13T03:41:23;7.57;;;4.70;;
6832;SDS011;3454;42.654;23.378;2023-07-13T03:43:49;8.10;;;4.70;;
6832;SDS011;3454;42.654;23.378;2023-07-13T03:46:16;11.13;;;4.70;;
6832;SDS011;3454;42.654;23.378;2023-07-13T03:48:43;7.55;;;5.03;;
6832;SDS011;3454;42.654;23.378;2023-07-13T03:51:11;7.07;;;4.88;;
6832;SDS011;3454;42.654;23.378;2023-07-13T03:53:40;5.90;;;4.68;;
6832;SDS011;3454;42.654;23.378;2023-07-13T03:56:07;6.70;;;5.60;;
6832;SDS011;3454;42.654;23.378;2023-07-13T03:58:35;7.18;;;4.45;;
6832;SDS011;3454;42.654;23.378;2023-07-13T04:01:05;6.18;;;5.32;;
6832;SDS011;3454;42.654;23.378;2023-07-13T04:03:32;5.40;;;4.72;;
6832;SDS011;3454;42.654;23.378;2023-07-13T04:05:59;8.40;;;5.40;;
6832;SDS011;3454;42.654;23.378;2023-07-13T04:08:30;9.50;;;5.20;;
6832;SDS011;3454;42.654;23.378;2023-07-13T04:11:00;6.07;;;4.85;;
6832;SDS011;3454;42.654;23.378;2023-07-13T04:13:29;7.75;;;5.30;;
6832;SDS011;3454;42.654;23.378;2023-07-13T04:15:55;7.47;;;5.53;;
6832;SDS011;3454;42.654;23.378;2023-07-13T04:18:21;6.50;;;5.30;;
6832;SDS011;3454;42.654;23.378;2023-07-13T04:20:47;5.75;;;4.82;;
6832;SDS011;3454;42.654;23.378;2023-07-13T04:23:15;6.57;;;4.03;;
6832;SDS011;3454;42.654;23.378;2023-07-13T04:25:45;7.35;;;4.57;;
6832;SDS011;3454;42.654;23.378;2023-07-13T04:28:15;7.78;;;6.55;;
6832;SDS011;3454;42.654;23.378;2023-07-13T04:30:42;10.02;;;5.85;;
6832;SDS011;3454;42.654;23.378;2023-07-13T04:33:08;15.18;;;12.90;;
6832;SDS011;3454;42.654;23.378;2023-07-13T04:35:34;8.68;;;7.60;;
6832;SDS011;3454;42.654;23.378;2023-07-13T04:38:00;7.88;;;5.38;;
6832;SDS011;3454;42.654;23.378;2023-07-13T04:40:26;7.20;;;5.07;;
6832;SDS011;3454;42.654;23.378;2023-07-13T04:42:52;12.32;;;5.85;;
6832;SDS011;3454;42.654;23.378;2023-07-13T04:45:18;7.65;;;5.40;;
6832;SDS011;3454;42.654;23.378;2023-07-13T04:47:43;10.63;;;5.75;;
6832;SDS011;3454;42.654;23.378;2023-07-13T04:50:09;10.55;;;7.00;;
6832;SDS011;3454;42.654;23.378;2023-07-13T04:52:40;9.43;;;6.35;;
6832;SDS011;3454;42.654;23.378;2023-07-13T04:55:07;15.18;;;10.95;;
6832;SDS011;3454;42.654;23.378;2023-07-13T04:57:33;14.40;;;8.23;;
6832;SDS011;3454;42.654;23.378;2023-07-13T04:59:59;8.73;;;6.57;;
6832;SDS011;3454;42.654;23.378;2023-07-13T05:02:26;11.13;;;6.47;;
6832;SDS011;3454;42.654;23.378;2023-07-13T05:04:53;6.40;;;5.55;;
6832;SDS011;3454;42.654;23.378;2023-07-13T05:07:18;13.80;;;6.30;;
6832;SDS011;3454;42.654;23.378;2023-07-13T05:09:44;8.30;;;6.18;;
6832;SDS011;3454;42.654;23.378;2023-07-13T05:12:10;10.18;;;6.40;;
6832;SDS011;3454;42.654;23.378;2023-07-13T05:14:36;11.68;;;7.18;;
6832;SDS011;3454;42.654;23.378;2023-07-13T05:17:02;7.85;;;6.10;;
6832;SDS011;3454;42.654;23.378;2023-07-13T05:19:28;10.38;;;5.97;;
6832;SDS011;3454;42.654;23.378;2023-07-13T05:21:54;8.88;;;5.97;;
6832;SDS011;3454;42.654;23.378;2023-07-13T05:24:19;7.72;;;6.13;;
6832;SDS011;3454;42.654;23.378;2023-07-13T05:26:44;11.05;;;6.88;;
6832;SDS011;3454;42.654;23.378;2023-07-13T05:29:10;7.35;;;5.70;;
6832;SDS011;3454;42.654;23.378;2023-07-13T05:31:36;9.63;;;6.60;;
6832;SDS011;3454;42.654;23.378;2023-07-13T05:34:02;6.35;;;5.45;;
6832;SDS011;3454;42.654;23.378;2023-07-13T05:36:28;6.55;;;5.95;;
6832;SDS011;3454;42.654;23.378;2023-07-13T05:38:54;7.50;;;6.28;;
6832;SDS011;3454;42.654;23.378;2023-07-13T05:41:20;13.02;;;6.40;;
6832;SDS011;3454;42.654;23.378;2023-07-13T05:43:45;8.38;;;6.13;;
6832;SDS011;3454;42.654;23.378;2023-07-13T05:46:11;8.07;;;5.93;;
6832;SDS011;3454;42.654;23.378;2023-07-13T05:48:36;10.90;;;6.45;;
6832;SDS011;3454;42.654;23.378;2023-07-13T05:51:02;8.50;;;6.70;;
6832;SDS011;3454;42.654;23.378;2023-07-13T05:53:27;9.32;;;6.18;;
6832;SDS011;3454;42.654;23.378;2023-07-13T05:55:53;9.15;;;6.95;;
6832;SDS011;3454;42.654;23.378;2023-07-13T05:58:20;16.17;;;7.60;;
6832;SDS011;3454;42.654;23.378;2023-07-13T06:00:46;8.20;;;6.60;;
6832;SDS011;3454;42.654;23.378;2023-07-13T06:03:13;8.50;;;6.75;;
6832;SDS011;3454;42.654;23.378;2023-07-13T06:05:41;6.82;;;6.05;;
6832;SDS011;3454;42.654;23.378;2023-07-13T06:08:07;10.88;;;6.03;;
6832;SDS011;3454;42.654;23.378;2023-07-13T06:10:33;8.55;;;6.65;;
6832;SDS011;3454;42.654;23.378;2023-07-13T06:13:02;8.65;;;7.28;;
6832;SDS011;3454;42.654;23.378;2023-07-13T06:15:28;7.95;;;6.55;;
6832;SDS011;3454;42.654;23.378;2023-07-13T06:17:54;11.88;;;7.07;;
6832;SDS011;3454;42.654;23.378;2023-07-13T06:20:20;9.57;;;6.28;;
6832;SDS011;3454;42.654;23.378;2023-07-13T06:22:45;12.02;;;7.20;;
6832;SDS011;3454;42.654;23.378;2023-07-13T06:25:11;7.95;;;6.90;;
6832;SDS011;3454;42.654;23.378;2023-07-13T06:27:36;7.50;;;6.22;;
6832;SDS011;3454;42.654;23.378;2023-07-13T06:30:02;11.40;;;7.18;;
6832;SDS011;3454;42.654;23.378;2023-07-13T06:32:28;11.60;;;6.93;;
6832;SDS011;3454;42.654;23.378;2023-07-13T06:34:53;7.88;;;6.28;;
6832;SDS011;3454;42.654;23.378;2023-07-13T06:37:19;9.38;;;6.78;;
6832;SDS011;3454;42.654;23.378;2023-07-13T06:39:44;10.43;;;6.75;;
6832;SDS011;3454;42.654;23.378;2023-07-13T06:42:10;8.05;;;6.38;;
6832;SDS011;3454;42.654;23.378;2023-07-13T06:44:36;7.70;;;6.72;;
6832;SDS011;3454;42.654;23.378;2023-07-13T06:47:02;7.43;;;6.30;;
6832;SDS011;3454;42.654;23.378;2023-07-13T06:49:28;11.05;;;7.00;;
6832;SDS011;3454;42.654;23.378;2023-07-13T06:51:53;8.40;;;7.10;;
6832;SDS011;3454;42.654;23.378;2023-07-13T06:54:19;14.10;;;7.43;;
6832;SDS011;3454;42.654;23.378;2023-07-13T06:56:44;14.38;;;9.75;;
6832;SDS011;3454;42.654;23.378;2023-07-13T06:59:10;19.95;;;13.50;;
6832;SDS011;3454;42.654;23.378;2023-07-13T07:01:36;16.10;;;12.82;;
6832;SDS011;3454;42.654;23.378;2023-07-13T07:04:02;11.45;;;7.55;;
6832;SDS011;3454;42.654;23.378;2023-07-13T07:06:28;12.80;;;7.38;;
6832;SDS011;3454;42.654;23.378;2023-07-13T07:08:54;12.82;;;7.68;;
6832;SDS011;3454;42.654;23.378;2023-07-13T07:11:21;17.15;;;7.47;;
6832;SDS011;3454;42.654;23.378;2023-07-13T07:13:49;12.68;;;7.20;;
6832;SDS011;3454;42.654;23.378;2023-07-13T07:16:15;10.93;;;7.68;;
6832;SDS011;3454;42.654;23.378;2023-07-13T07:18:41;9.93;;;7.57;;
6832;SDS011;3454;42.654;23.378;2023-07-13T07:21:06;10.02;;;7.07;;
6832;SDS011;3454;42.654;23.378;2023-07-13T07:23:32;19.30;;;7.65;;
6832;SDS011;3454;42.654;23.378;2023-07-13T07:25:57;13.70;;;7.55;;
6832;SDS011;3454;42.654;23.378;2023-07-13T07:28:23;11.10;;;7.45;;
6832;SDS011;3454;42.654;23.378;2023-07-13T07:30:52;13.40;;;7.90;;
6832;SDS011;3454;42.654;23.378;2023-07-13T07:33:19;16.20;;;7.50;;
6832;SDS011;3454;42.654;23.378;2023-07-13T07:35:45;13.10;;;8.00;;
6832;SDS011;3454;42.654;23.378;2023-07-13T07:38:10;15.95;;;8.68;;
6832;SDS011;3454;42.654;23.378;2023-07-13T07:40:39;16.08;;;8.20;;
6832;SDS011;3454;42.654;23.378;2023-07-13T07:43:06;14.88;;;8.77;;
6832;SDS011;3454;42.654;23.378;2023-07-13T07:45:32;14.70;;;8.57;;
6832;SDS011;3454;42.654;23.378;2023-07-13T07:47:58;17.63;;;8.32;;
6832;SDS011;3454;42.654;23.378;2023-07-13T07:50:27;15.25;;;8.90;;
6832;SDS011;3454;42.654;23.378;2023-07-13T07:52:53;17.05;;;8.90;;
6832;SDS011;3454;42.654;23.378;2023-07-13T07:55:21;15.80;;;7.60;;
6832;SDS011;3454;42.654;23.378;2023-07-13T07:57:47;11.38;;;7.57;;
6832;SDS011;3454;42.654;23.378;2023-07-13T08:00:13;10.63;;;7.05;;
6832;SDS011;3454;42.654;23.378;2023-07-13T08:02:39;13.98;;;8.13;;
6832;SDS011;3454;42.654;23.378;2023-07-13T08:05:06;12.07;;;7.78;;
6832;SDS011;3454;42.654;23.378;2023-07-13T08:07:33;13.88;;;7.32;;
6832;SDS011;3454;42.654;23.378;2023-07-13T08:09:59;16.63;;;8.10;;
6832;SDS011;3454;42.654;23.378;2023-07-13T08:12:24;11.52;;;6.55;;
6832;SDS011;3454;42.654;23.378;2023-07-13T08:14:50;11.85;;;7.95;;
6832;SDS011;3454;42.654;23.378;2023-07-13T08:17:19;10.80;;;7.38;;
6832;SDS011;3454;42.654;23.378;2023-07-13T08:19:45;12.73;;;7.80;;
6832;SDS011;3454;42.654;23.378;2023-07-13T08:22:11;9.40;;;7.43;;
6832;SDS011;3454;42.654;23.378;2023-07-13T08:24:36;14.23;;;7.40;;
6832;SDS011;3454;42.654;23.378;2023-07-13T08:27:04;15.27;;;7.97;;
6832;SDS011;3454;42.654;23.378;2023-07-13T08:29:30;15.48;;;7.68;;
6832;SDS011;3454;42.654;23.378;2023-07-13T08:32:00;11.82;;;7.28;;
6832;SDS011;3454;42.654;23.378;2023-07-13T08:34:25;11.82;;;9.13;;
6832;SDS011;3454;42.654;23.378;2023-07-13T08:36:51;10.55;;;7.88;;
6832;SDS011;3454;42.654;23.378;2023-07-13T08:39:17;9.88;;;7.53;;
6832;SDS011;3454;42.654;23.378;2023-07-13T08:41:44;9.63;;;8.63;;
6832;SDS011;3454;42.654;23.378;2023-07-13T08:44:20;9.32;;;7.13;;
6832;SDS011;3454;42.654;23.378;2023-07-13T08:46:57;9.75;;;8.20;;
6832;SDS011;3454;42.654;23.378;2023-07-13T08:49:24;12.43;;;7.53;;
6832;SDS011;3454;42.654;23.378;2023-07-13T08:51:57;11.57;;;6.78;;
6832;SDS011;3454;42.654;23.378;2023-07-13T08:54:30;12.15;;;7.35;;
6832;SDS011;3454;42.654;23.378;2023-07-13T08:57:00;11.27;;;7.25;;
6832;SDS011;3454;42.654;23.378;2023-07-13T08:59:35;9.82;;;7.28;;
6832;SDS011;3454;42.654;23.378;2023-07-13T09:05:09;10.65;;;7.30;;
6832;SDS011;3454;42.654;23.378;2023-07-13T09:07:50;13.68;;;8.02;;
6832;SDS011;3454;42.654;23.378;2023-07-13T09:10:41;11.77;;;6.95;;
6832;SDS011;3454;42.654;23.378;2023-07-13T09:15:46;15.07;;;8.05;;
6832;SDS011;3454;42.654;23.378;2023-07-13T09:18:15;11.07;;;8.55;;
6832;SDS011;3454;42.654;23.378;2023-07-13T09:20:48;12.57;;;9.80;;
6832;SDS011;3454;42.654;23.378;2023-07-13T09:23:19;11.70;;;8.60;;
6832;SDS011;3454;42.654;23.378;2023-07-13T09:25:48;13.40;;;8.18;;
6832;SDS011;3454;42.654;23.378;2023-07-13T09:28:43;14.25;;;7.93;;
6832;SDS011;3454;42.654;23.378;2023-07-13T09:31:17;9.63;;;7.50;;
6832;SDS011;3454;42.654;23.378;2023-07-13T09:33:47;13.63;;;7.97;;
6832;SDS011;3454;42.654;23.378;2023-07-13T09:36:18;12.98;;;7.88;;
6832;SDS011;3454;42.654;23.378;2023-07-13T09:38:46;10.18;;;7.05;;
6832;SDS011;3454;42.654;23.378;2023-07-13T09:44:01;12.80;;;8.18;;
6832;SDS011;3454;42.654;23.378;2023-07-13T09:46:38;11.07;;;7.82;;
6832;SDS011;3454;42.654;23.378;2023-07-13T09:49:09;11.68;;;7.80;;
6832;SDS011;3454;42.654;23.378;2023-07-13T09:51:36;13.50;;;8.27;;
6832;SDS011;3454;42.654;23.378;2023-07-13T09:54:03;13.13;;;8.68;;
6832;SDS011;3454;42.654;23.378;2023-07-13T09:56:29;18.10;;;8.68;;
6832;SDS011;3454;42.654;23.378;2023-07-13T09:58:55;14.95;;;8.00;;
6832;SDS011;3454;42.654;23.378;2023-07-13T10:01:37;12.85;;;8.00;;
6832;SDS011;3454;42.654;23.378;2023-07-13T10:04:13;16.27;;;7.95;;
6832;SDS011;3454;42.654;23.378;2023-07-13T10:06:46;13.02;;;8.00;;
6832;SDS011;3454;42.654;23.378;2023-07-13T10:09:16;12.15;;;8.20;;
6832;SDS011;3454;42.654;23.378;2023-07-13T10:11:42;13.32;;;7.97;;
6832;SDS011;3454;42.654;23.378;2023-07-13T10:14:10;12.25;;;7.40;;
6832;SDS011;3454;42.654;23.378;2023-07-13T10:16:44;15.23;;;7.63;;
6832;SDS011;3454;42.654;23.378;2023-07-13T10:19:18;12.43;;;7.63;;
6832;SDS011;3454;42.654;23.378;2023-07-13T10:21:52;11.00;;;8.15;;
6832;SDS011;3454;42.654;23.378;2023-07-13T10:24:29;12.93;;;7.35;;
6832;SDS011;3454;42.654;23.378;2023-07-13T10:29:40;16.67;;;8.32;;
6832;SDS011;3454;42.654;23.378;2023-07-13T10:32:15;11.35;;;7.28;;
6832;SDS011;3454;42.654;23.378;2023-07-13T10:34:41;9.93;;;6.97;;
6832;SDS011;3454;42.654;23.378;2023-07-13T10:37:36;12.68;;;8.13;;
6832;SDS011;3454;42.654;23.378;2023-07-13T10:40:06;16.45;;;9.05;;
6832;SDS011;3454;42.654;23.378;2023-07-13T10:42:39;13.35;;;8.23;;
6832;SDS011;3454;42.654;23.378;2023-07-13T10:45:20;12.93;;;8.90;;
6832;SDS011;3454;42.654;23.378;2023-07-13T10:47:47;12.85;;;7.75;;
6832;SDS011;3454;42.654;23.378;2023-07-13T10:50:24;9.50;;;7.65;;
6832;SDS011;3454;42.654;23.378;2023-07-13T10:52:53;11.35;;;8.43;;
6832;SDS011;3454;42.654;23.378;2023-07-13T10:58:03;14.65;;;7.25;;
6832;SDS011;3454;42.654;23.378;2023-07-13T11:00:49;10.32;;;6.43;;
6832;SDS011;3454;42.654;23.378;2023-07-13T11:03:23;12.77;;;5.68;;
6832;SDS011;3454;42.654;23.378;2023-07-13T11:06:03;9.50;;;5.85;;
6832;SDS011;3454;42.654;23.378;2023-07-13T11:08:35;8.32;;;5.18;;
6832;SDS011;3454;42.654;23.378;2023-07-13T11:11:31;9.43;;;4.78;;
6832;SDS011;3454;42.654;23.378;2023-07-13T11:18:47;7.82;;;5.13;;
6832;SDS011;3454;42.654;23.378;2023-07-13T11:21:19;8.15;;;4.75;;
6832;SDS011;3454;42.654;23.378;2023-07-13T11:23:53;10.77;;;5.15;;
6832;SDS011;3454;42.654;23.378;2023-07-13T11:31:43;12.40;;;5.70;;
6832;SDS011;3454;42.654;23.378;2023-07-13T11:34:36;10.15;;;4.63;;
6832;SDS011;3454;42.654;23.378;2023-07-13T11:37:08;13.75;;;4.97;;
6832;SDS011;3454;42.654;23.378;2023-07-13T11:39:39;9.45;;;5.63;;
6832;SDS011;3454;42.654;23.378;2023-07-13T11:42:09;11.63;;;5.95;;
6832;SDS011;3454;42.654;23.378;2023-07-13T11:44:42;10.77;;;5.75;;
6832;SDS011;3454;42.654;23.378;2023-07-13T11:47:11;10.88;;;6.55;;
6832;SDS011;3454;42.654;23.378;2023-07-13T11:49:49;10.63;;;6.63;;
6832;SDS011;3454;42.654;23.378;2023-07-13T11:52:32;11.30;;;6.72;;
6832;SDS011;3454;42.654;23.378;2023-07-13T11:55:03;11.85;;;6.82;;
6832;SDS011;3454;42.654;23.378;2023-07-13T11:57:52;12.07;;;5.78;;
6832;SDS011;3454;42.654;23.378;2023-07-13T12:00:23;7.57;;;5.13;;
6832;SDS011;3454;42.654;23.378;2023-07-13T12:02:54;7.72;;;5.13;;
6832;SDS011;3454;42.654;23.378;2023-07-13T12:05:22;9.68;;;5.22;;
6832;SDS011;3454;42.654;23.378;2023-07-13T12:07:49;9.43;;;5.45;;
6832;SDS011;3454;42.654;23.378;2023-07-13T12:10:19;9.32;;;5.35;;
6832;SDS011;3454;42.654;23.378;2023-07-13T12:12:51;8.98;;;5.30;;
6832;SDS011;3454;42.654;23.378;2023-07-13T12:15:38;14.68;;;6.43;;
6832;SDS011;3454;42.654;23.378;2023-07-13T12:18:19;6.68;;;5.03;;
6832;SDS011;3454;42.654;23.378;2023-07-13T12:20:47;7.97;;;4.72;;
6832;SDS011;3454;42.654;23.378;2023-07-13T12:23:30;6.90;;;4.88;;
6832;SDS011;3454;42.654;23.378;2023-07-13T12:25:58;11.25;;;5.13;;
6832;SDS011;3454;42.654;23.378;2023-07-13T12:28:33;12.25;;;5.00;;
6832;SDS011;3454;42.654;23.378;2023-07-13T12:31:04;9.50;;;5.10;;
6832;SDS011;3454;42.654;23.378;2023-07-13T12:33:32;6.70;;;5.38;;
6832;SDS011;3454;42.654;23.378;2023-07-13T12:36:02;6.07;;;5.32;;
6832;SDS011;3454;42.654;23.378;2023-07-13T12:38:31;8.43;;;5.68;;
6832;SDS011;3454;42.654;23.378;2023-07-13T12:40:58;10.55;;;5.20;;
6832;SDS011;3454;42.654;23.378;2023-07-13T12:43:25;10.45;;;5.70;;
6832;SDS011;3454;42.654;23.378;2023-07-13T12:48:21;10.48;;;5.78;;
6832;SDS011;3454;42.654;23.378;2023-07-13T12:50:47;11.48;;;5.13;;
6832;SDS011;3454;42.654;23.378;2023-07-13T12:53:21;11.95;;;5.07;;
6832;SDS011;3454;42.654;23.378;2023-07-13T12:55:54;11.57;;;6.07;;
6832;SDS011;3454;42.654;23.378;2023-07-13T13:00:54;12.43;;;6.10;;
6832;SDS011;3454;42.654;23.378;2023-07-13T13:03:24;9.85;;;6.40;;
6832;SDS011;3454;42.654;23.378;2023-07-13T13:05:58;13.15;;;7.70;;
6832;SDS011;3454;42.654;23.378;2023-07-13T13:08:28;17.73;;;6.78;;
6832;SDS011;3454;42.654;23.378;2023-07-13T13:10:55;10.45;;;6.85;;
6832;SDS011;3454;42.654;23.378;2023-07-13T13:13:20;8.93;;;6.55;;
6832;SDS011;3454;42.654;23.378;2023-07-13T13:15:46;10.07;;;5.93;;
6832;SDS011;3454;42.654;23.378;2023-07-13T13:18:19;13.35;;;6.35;;
6832;SDS011;3454;42.654;23.378;2023-07-13T13:20:47;11.77;;;6.30;;
6832;SDS011;3454;42.654;23.378;2023-07-13T13:23:14;11.30;;;6.57;;
6832;SDS011;3454;42.654;23.378;2023-07-13T13:25:43;11.40;;;6.38;;
6832;SDS011;3454;42.654;23.378;2023-07-13T13:28:13;10.10;;;6.00;;
6832;SDS011;3454;42.654;23.378;2023-07-13T13:30:41;10.93;;;6.90;;
6832;SDS011;3454;42.654;23.378;2023-07-13T13:33:11;13.30;;;6.80;;
6832;SDS011;3454;42.654;23.378;2023-07-13T13:35:39;11.18;;;6.70;;
6832;SDS011;3454;42.654;23.378;2023-07-13T13:38:10;9.10;;;6.40;;
6832;SDS011;3454;42.654;23.378;2023-07-13T13:40:43;12.63;;;6.32;;
6832;SDS011;3454;42.654;23.378;2023-07-13T13:43:14;9.48;;;6.13;;
6832;SDS011;3454;42.654;23.378;2023-07-13T13:45:58;10.82;;;6.22;;
6832;SDS011;3454;42.654;23.378;2023-07-13T13:48:32;13.80;;;6.55;;
6832;SDS011;3454;42.654;23.378;2023-07-13T13:50:59;12.18;;;6.03;;
6832;SDS011;3454;42.654;23.378;2023-07-13T13:53:26;11.55;;;6.07;;
6832;SDS011;3454;42.654;23.378;2023-07-13T13:55:53;10.73;;;6.45;;
6832;SDS011;3454;42.654;23.378;2023-07-13T13:58:19;10.15;;;5.70;;
6832;SDS011;3454;42.654;23.378;2023-07-13T14:00:44;10.30;;;6.22;;
6832;SDS011;3454;42.654;23.378;2023-07-13T14:03:17;13.38;;;5.97;;
6832;SDS011;3454;42.654;23.378;2023-07-13T14:05:45;10.27;;;5.95;;
6832;SDS011;3454;42.654;23.378;2023-07-13T14:08:21;11.20;;;6.97;;
6832;SDS011;3454;42.654;23.378;2023-07-13T14:10:48;11.10;;;6.65;;
6832;SDS011;3454;42.654;23.378;2023-07-13T14:13:30;10.32;;;6.65;;
6832;SDS011;3454;42.654;23.378;2023-07-13T14:16:01;11.82;;;6.10;;
6832;SDS011;3454;42.654;23.378;2023-07-13T14:18:27;14.15;;;6.85;;
6832;SDS011;3454;42.654;23.378;2023-07-13T14:20:53;14.00;;;6.53;;
6832;SDS011;3454;42.654;23.378;2023-07-13T14:23:19;10.32;;;6.18;;
6832;SDS011;3454;42.654;23.378;2023-07-13T14:25:45;9.57;;;5.85;;
6832;SDS011;3454;42.654;23.378;2023-07-13T14:28:32;10.52;;;6.38;;
6832;SDS011;3454;42.654;23.378;2023-07-13T14:30:57;12.25;;;6.35;;
6832;SDS011;3454;42.654;23.378;2023-07-13T14:33:22;8.82;;;5.72;;
6832;SDS011;3454;42.654;23.378;2023-07-13T14:35:49;8.50;;;6.10;;
6832;SDS011;3454;42.654;23.378;2023-07-13T14:38:17;16.88;;;7.05;;
6832;SDS011;3454;42.654;23.378;2023-07-13T14:40:45;12.13;;;6.38;;
6832;SDS011;3454;42.654;23.378;2023-07-13T14:43:12;11.85;;;6.75;;
6832;SDS011;3454;42.654;23.378;2023-07-13T14:45:40;10.93;;;6.57;;
6832;SDS011;3454;42.654;23.378;2023-07-13T14:48:13;13.25;;;6.47;;
6832;SDS011;3454;42.654;23.378;2023-07-13T14:50:44;10.88;;;6.90;;
6832;SDS011;3454;42.654;23.378;2023-07-13T14:53:10;11.25;;;6.03;;
6832;SDS011;3454;42.654;23.378;2023-07-13T14:55:37;15.60;;;6.57;;
6832;SDS011;3454;42.654;23.378;2023-07-13T14:58:03;10.05;;;6.82;;
6832;SDS011;3454;42.654;23.378;2023-07-13T15:00:28;13.00;;;6.93;;
6832;SDS011;3454;42.654;23.378;2023-07-13T15:02:56;10.30;;;6.47;;
6832;SDS011;3454;42.654;23.378;2023-07-13T15:05:28;11.95;;;6.22;;
6832;SDS011;3454;42.654;23.378;2023-07-13T15:08:04;13.60;;;6.53;;
6832;SDS011;3454;42.654;23.378;2023-07-13T15:10:31;10.00;;;6.43;;
6832;SDS011;3454;42.654;23.378;2023-07-13T15:13:00;15.35;;;6.28;;
6832;SDS011;3454;42.654;23.378;2023-07-13T15:15:37;12.40;;;6.10;;
6832;SDS011;3454;42.654;23.378;2023-07-13T15:18:08;9.85;;;5.97;;
6832;SDS011;3454;42.654;23.378;2023-07-13T15:20:36;7.45;;;4.65;;
6832;SDS011;3454;42.654;23.378;2023-07-13T15:23:02;11.18;;;5.72;;
6832;SDS011;3454;42.654;23.378;2023-07-13T15:25:29;10.35;;;5.45;;
6832;SDS011;3454;42.654;23.378;2023-07-13T15:27:56;9.23;;;5.45;;
6832;SDS011;3454;42.654;23.378;2023-07-13T15:30:25;15.52;;;5.78;;
6832;SDS011;3454;42.654;23.378;2023-07-13T15:33:03;12.52;;;5.53;;
6832;SDS011;3454;42.654;23.378;2023-07-13T15:35:36;9.10;;;5.65;;
6832;SDS011;3454;42.654;23.378;2023-07-13T15:38:05;8.90;;;5.47;;
6832;SDS011;3454;42.654;23.378;2023-07-13T15:40:38;11.32;;;5.63;;